sensor_id;sensor_type;location;lat;lon;timestamp;pressure;altitude;pressure_sealevel;temperature;humidity
73860;BME280;62197;51.632;13.700;2022-09-09T00:01:34;99920.34;;;12.74;100.00
73860;BME280;62197;51.632;13.700;2022-09-09T00:04:09;99924.88;;;12.90;100.00
73860;BME280;62197;51.632;13.700;2022-09-09T00:07:05;99912.34;;;12.78;100.00
73860;BME280;62197;51.632;13.700;2022-09-09T00:09:39;99917.81;;;13.19;100.00
73860;BME280;62197;51.632;13.700;2022-09-09T00:12:11;99913.94;;;13.20;100.00
73860;BME280;62197;51.632;13.700;2022-09-09T00:14:43;99917.97;;;13.03;100.00
73860;BME280;62197;51.632;13.700;2022-09-09T00:17:24;99916.09;;;13.03;100.00
73860;BME280;62197;51.632;13.700;2022-09-09T00:20:05;99918.25;;;12.96;100.00
73860;BME280;62197;51.632;13.700;2022-09-09T00:22:36;99916.50;;;12.75;100.00
73860;BME280;62197;51.632;13.700;2022-09-09T00:25:28;99913.72;;;12.75;100.00
73860;BME280;62197;51.632;13.700;2022-09-09T00:27:57;99910.22;;;12.95;100.00
73860;BME280;62197;51.632;13.700;2022-09-09T00:30:23;99911.25;;;12.84;100.00
73860;BME280;62197;51.632;13.700;2022-09-09T00:32:53;99904.84;;;12.73;100.00
73860;BME280;62197;51.632;13.700;2022-09-09T00:35:33;99915.06;;;12.67;100.00
73860;BME280;62197;51.632;13.700;2022-09-09T00:38:13;99910.59;;;12.61;100.00
73860;BME280;62197;51.632;13.700;2022-09-09T00:43:32;99904.09;;;12.41;100.00
73860;BME280;62197;51.632;13.700;2022-09-09T00:49:49;99902.16;;;12.36;100.00
73860;BME280;62197;51.632;13.700;2022-09-09T00:52:23;99910.72;;;12.35;100.00
73860;BME280;62197;51.632;13.700;2022-09-09T00:55:07;99910.38;;;12.26;100.00
73860;BME280;62197;51.632;13.700;2022-09-09T00:57:36;99907.88;;;12.25;100.00
73860;BME280;62197;51.632;13.700;2022-09-09T01:11:09;99921.66;;;12.20;100.00
73860;BME280;62197;51.632;13.700;2022-09-09T01:13:37;99921.94;;;12.18;100.00
73860;BME280;62197;51.632;13.700;2022-09-09T01:16:06;99915.56;;;12.18;100.00
73860;BME280;62197;51.632;13.700;2022-09-09T01:18:36;99911.97;;;12.17;100.00
73860;BME280;62197;51.632;13.700;2022-09-09T01:21:14;99916.66;;;12.17;100.00
73860;BME280;62197;51.632;13.700;2022-09-09T01:28:46;99907.91;;;11.93;100.00
73860;BME280;62197;51.632;13.700;2022-09-09T01:31:17;99904.25;;;11.88;100.00
73860;BME280;62197;51.632;13.700;2022-09-09T01:33:43;99918.13;;;11.93;100.00
73860;BME280;62197;51.632;13.700;2022-09-09T01:36:13;99905.09;;;11.88;100.00
73860;BME280;62197;51.632;13.700;2022-09-09T01:38:40;99915.84;;;11.85;100.00
73860;BME280;62197;51.632;13.700;2022-09-09T01:41:05;99905.09;;;11.88;100.00
73860;BME280;62197;51.632;13.700;2022-09-09T01:43:31;99898.94;;;11.81;100.00
73860;BME280;62197;51.632;13.700;2022-09-09T01:46:00;99908.63;;;11.78;100.00
73860;BME280;62197;51.632;13.700;2022-09-09T01:48:27;99906.38;;;11.75;100.00
73860;BME280;62197;51.632;13.700;2022-09-09T01:50:52;99924.94;;;11.80;100.00
73860;BME280;62197;51.632;13.700;2022-09-09T01:53:19;99927.34;;;11.71;100.00
73860;BME280;62197;51.632;13.700;2022-09-09T01:55:57;99931.22;;;11.70;100.00
73860;BME280;62197;51.632;13.700;2022-09-09T01:58:57;99920.47;;;11.74;100.00
73860;BME280;62197;51.632;13.700;2022-09-09T02:04:22;99919.88;;;11.72;100.00
73860;BME280;62197;51.632;13.700;2022-09-09T02:06:53;99919.25;;;11.65;100.00
73860;BME280;62197;51.632;13.700;2022-09-09T02:09:22;99921.00;;;11.71;100.00
73860;BME280;62197;51.632;13.700;2022-09-09T02:11:55;99921.50;;;11.68;100.00
73860;BME280;62197;51.632;13.700;2022-09-09T02:14:28;99916.13;;;11.61;100.00
73860;BME280;62197;51.632;13.700;2022-09-09T02:17:03;99922.09;;;11.75;100.00
73860;BME280;62197;51.632;13.700;2022-09-09T02:19:35;99911.06;;;11.75;100.00
73860;BME280;62197;51.632;13.700;2022-09-09T02:22:02;99917.41;;;11.75;100.00
73860;BME280;62197;51.632;13.700;2022-09-09T02:24:31;99928.16;;;11.72;100.00
73860;BME280;62197;51.632;13.700;2022-09-09T02:26:59;99915.84;;;11.58;100.00
73860;BME280;62197;51.632;13.700;2022-09-09T02:29:39;99929.72;;;11.63;100.00
73860;BME280;62197;51.632;13.700;2022-09-09T02:32:10;99919.72;;;11.57;100.00
73860;BME280;62197;51.632;13.700;2022-09-09T02:34:43;99931.66;;;11.62;100.00
73860;BME280;62197;51.632;13.700;2022-09-09T02:37:10;99928.56;;;11.59;100.00
73860;BME280;62197;51.632;13.700;2022-09-09T02:39:37;99926.31;;;11.56;100.00
73860;BME280;62197;51.632;13.700;2022-09-09T02:42:04;99933.00;;;11.60;100.00
73860;BME280;62197;51.632;13.700;2022-09-09T02:44:29;99926.28;;;11.51;100.00
73860;BME280;62197;51.632;13.700;2022-09-09T02:50:07;99927.72;;;11.58;100.00
73860;BME280;62197;51.632;13.700;2022-09-09T02:52:45;99934.03;;;11.54;100.00
73860;BME280;62197;51.632;13.700;2022-09-09T02:57:45;99934.00;;;11.49;100.00
73860;BME280;62197;51.632;13.700;2022-09-09T03:00:13;99920.25;;;11.81;100.00
73860;BME280;62197;51.632;13.700;2022-09-09T03:02:38;99921.66;;;11.61;100.00
73860;BME280;62197;51.632;13.700;2022-09-09T03:05:04;99934.75;;;11.66;100.00
73860;BME280;62197;51.632;13.700;2022-09-09T03:07:30;99945.88;;;11.49;100.00
73860;BME280;62197;51.632;13.700;2022-09-09T03:09:55;99934.19;;;11.42;100.00
73860;BME280;62197;51.632;13.700;2022-09-09T03:12:20;99940.25;;;11.39;100.00
73860;BME280;62197;51.632;13.700;2022-09-09T03:14:46;99930.50;;;11.32;100.00
73860;BME280;62197;51.632;13.700;2022-09-09T03:17:11;99941.53;;;11.32;100.00
73860;BME280;62197;51.632;13.700;2022-09-09T03:19:37;99942.03;;;11.29;100.00
73860;BME280;62197;51.632;13.700;2022-09-09T03:22:02;99943.47;;;11.31;100.00
73860;BME280;62197;51.632;13.700;2022-09-09T03:24:29;99946.22;;;11.31;100.00
73860;BME280;62197;51.632;13.700;2022-09-09T03:26:55;99948.69;;;11.28;100.00
73860;BME280;62197;51.632;13.700;2022-09-09T03:29:21;99938.66;;;11.22;100.00
73860;BME280;62197;51.632;13.700;2022-09-09T03:31:46;99942.50;;;11.21;100.00
73860;BME280;62197;51.632;13.700;2022-09-09T03:34:12;99944.22;;;11.27;100.00
73860;BME280;62197;51.632;13.700;2022-09-09T03:36:38;99937.41;;;11.34;100.00
73860;BME280;62197;51.632;13.700;2022-09-09T03:39:04;99931.06;;;11.34;100.00
73860;BME280;62197;51.632;13.700;2022-09-09T03:41:29;99942.38;;;11.32;100.00
73860;BME280;62197;51.632;13.700;2022-09-09T03:43:55;99937.56;;;11.23;100.00
73860;BME280;62197;51.632;13.700;2022-09-09T03:46:21;99941.88;;;11.14;100.00
73860;BME280;62197;51.632;13.700;2022-09-09T03:48:47;99937.50;;;11.18;100.00
73860;BME280;62197;51.632;13.700;2022-09-09T03:51:12;99936.97;;;11.21;100.00
73860;BME280;62197;51.632;13.700;2022-09-09T03:53:37;99935.06;;;11.48;100.00
73860;BME280;62197;51.632;13.700;2022-09-09T03:56:04;99930.13;;;11.50;100.00
73860;BME280;62197;51.632;13.700;2022-09-09T03:58:32;99934.50;;;11.46;100.00
73860;BME280;62197;51.632;13.700;2022-09-09T04:01:03;99922.50;;;11.62;100.00
73860;BME280;62197;51.632;13.700;2022-09-09T04:03:29;99930.22;;;11.60;100.00
73860;BME280;62197;51.632;13.700;2022-09-09T04:05:56;99942.97;;;11.61;100.00
73860;BME280;62197;51.632;13.700;2022-09-09T04:08:22;99934.72;;;11.39;100.00
73860;BME280;62197;51.632;13.700;2022-09-09T04:10:50;99928.75;;;11.26;100.00
73860;BME280;62197;51.632;13.700;2022-09-09T04:13:17;99931.41;;;11.42;100.00
73860;BME280;62197;51.632;13.700;2022-09-09T04:15:44;99933.03;;;11.38;100.00
73860;BME280;62197;51.632;13.700;2022-09-09T04:18:10;99946.81;;;11.33;100.00
73860;BME280;62197;51.632;13.700;2022-09-09T04:20:37;99936.91;;;11.37;100.00
73860;BME280;62197;51.632;13.700;2022-09-09T04:23:02;99947.34;;;11.30;100.00
73860;BME280;62197;51.632;13.700;2022-09-09T04:25:28;99948.88;;;11.21;100.00
73860;BME280;62197;51.632;13.700;2022-09-09T04:27:57;99943.47;;;11.31;100.00
73860;BME280;62197;51.632;13.700;2022-09-09T04:30:23;99933.56;;;11.35;100.00
73860;BME280;62197;51.632;13.700;2022-09-09T04:32:49;99934.34;;;11.31;100.00
73860;BME280;62197;51.632;13.700;2022-09-09T04:35:14;99936.97;;;11.21;100.00
73860;BME280;62197;51.632;13.700;2022-09-09T04:37:39;99948.56;;;11.18;100.00
73860;BME280;62197;51.632;13.700;2022-09-09T04:40:06;99958.97;;;11.11;100.00
73860;BME280;62197;51.632;13.700;2022-09-09T04:42:36;99951.13;;;11.03;100.00
73860;BME280;62197;51.632;13.700;2022-09-09T04:45:02;99944.22;;;11.27;100.00
73860;BME280;62197;51.632;13.700;2022-09-09T04:47:28;99946.66;;;11.45;100.00
73860;BME280;62197;51.632;13.700;2022-09-09T04:49:53;99949.88;;;11.37;100.00
73860;BME280;62197;51.632;13.700;2022-09-09T04:52:20;99948.47;;;11.34;100.00
73860;BME280;62197;51.632;13.700;2022-09-09T04:54:45;99936.06;;;11.37;100.00
73860;BME280;62197;51.632;13.700;2022-09-09T04:57:10;99925.53;;;11.34;100.00
73860;BME280;62197;51.632;13.700;2022-09-09T04:59:36;99941.59;;;11.37;100.00
73860;BME280;62197;51.632;13.700;2022-09-09T05:02:01;99942.25;;;11.44;100.00
73860;BME280;62197;51.632;13.700;2022-09-09T05:04:27;99935.34;;;11.46;100.00
73860;BME280;62197;51.632;13.700;2022-09-09T05:06:53;99937.66;;;11.81;100.00
73860;BME280;62197;51.632;13.700;2022-09-09T05:09:19;99940.88;;;12.00;100.00
73860;BME280;62197;51.632;13.700;2022-09-09T05:11:44;99948.19;;;11.84;100.00
73860;BME280;62197;51.632;13.700;2022-09-09T05:14:09;99954.41;;;11.96;100.00
73860;BME280;62197;51.632;13.700;2022-09-09T05:16:37;99955.63;;;11.78;100.00
73860;BME280;62197;51.632;13.700;2022-09-09T05:19:02;99949.06;;;11.63;100.00
73860;BME280;62197;51.632;13.700;2022-09-09T05:21:28;99950.41;;;11.60;100.00
73860;BME280;62197;51.632;13.700;2022-09-09T05:23:54;99959.16;;;11.74;100.00
73860;BME280;62197;51.632;13.700;2022-09-09T05:26:21;99955.78;;;11.67;100.00
73860;BME280;62197;51.632;13.700;2022-09-09T05:28:47;99952.75;;;12.00;100.00
73860;BME280;62197;51.632;13.700;2022-09-09T05:31:15;99961.09;;;12.05;100.00
73860;BME280;62197;51.632;13.700;2022-09-09T05:33:42;99974.38;;;12.03;100.00
73860;BME280;62197;51.632;13.700;2022-09-09T05:36:16;99970.56;;;12.09;100.00
73860;BME280;62197;51.632;13.700;2022-09-09T05:38:42;99962.84;;;12.16;100.00
73860;BME280;62197;51.632;13.700;2022-09-09T05:41:08;99971.06;;;12.06;100.00
73860;BME280;62197;51.632;13.700;2022-09-09T05:43:36;99960.56;;;12.08;100.00
73860;BME280;62197;51.632;13.700;2022-09-09T05:46:03;99963.41;;;12.13;100.00
73860;BME280;62197;51.632;13.700;2022-09-09T05:48:41;99969.44;;;12.10;100.00
73860;BME280;62197;51.632;13.700;2022-09-09T05:51:09;99952.28;;;12.08;100.00
73860;BME280;62197;51.632;13.700;2022-09-09T05:53:36;99961.03;;;12.27;100.00
73860;BME280;62197;51.632;13.700;2022-09-09T05:56:04;99955.38;;;12.48;100.00
73860;BME280;62197;51.632;13.700;2022-09-09T05:58:33;99963.22;;;12.66;99.94
73860;BME280;62197;51.632;13.700;2022-09-09T06:01:09;99969.88;;;12.65;99.17
73860;BME280;62197;51.632;13.700;2022-09-09T06:03:36;99974.28;;;12.61;99.73
73860;BME280;62197;51.632;13.700;2022-09-09T06:06:05;99968.16;;;12.59;99.85
73860;BME280;62197;51.632;13.700;2022-09-09T06:08:35;99974.22;;;12.56;100.00
73860;BME280;62197;51.632;13.700;2022-09-09T06:11:08;99983.16;;;12.63;100.00
73860;BME280;62197;51.632;13.700;2022-09-09T06:13:34;99976.00;;;12.78;99.97
73860;BME280;62197;51.632;13.700;2022-09-09T06:16:02;99976.06;;;12.83;99.52
73860;BME280;62197;51.632;13.700;2022-09-09T06:18:27;99964.22;;;12.92;99.50
73860;BME280;62197;51.632;13.700;2022-09-09T06:20:57;99981.03;;;13.27;98.72
73860;BME280;62197;51.632;13.700;2022-09-09T06:23:24;99965.56;;;13.46;97.86
73860;BME280;62197;51.632;13.700;2022-09-09T06:25:50;99980.03;;;13.64;97.16
73860;BME280;62197;51.632;13.700;2022-09-09T06:28:16;99979.81;;;13.85;96.97
73860;BME280;62197;51.632;13.700;2022-09-09T06:30:42;99981.50;;;14.01;94.28
73860;BME280;62197;51.632;13.700;2022-09-09T06:33:07;99973.72;;;14.13;94.81
73860;BME280;62197;51.632;13.700;2022-09-09T06:35:33;99987.09;;;14.41;93.50
73860;BME280;62197;51.632;13.700;2022-09-09T06:37:58;99988.47;;;14.59;93.06
73860;BME280;62197;51.632;13.700;2022-09-09T06:40:24;99981.50;;;14.72;91.12
73860;BME280;62197;51.632;13.700;2022-09-09T06:42:49;99989.25;;;14.85;93.41
73860;BME280;62197;51.632;13.700;2022-09-09T06:45:15;99987.03;;;14.92;92.70
73860;BME280;62197;51.632;13.700;2022-09-09T06:47:40;99995.06;;;14.98;91.69
73860;BME280;62197;51.632;13.700;2022-09-09T06:50:06;99993.13;;;15.04;91.68
73860;BME280;62197;51.632;13.700;2022-09-09T06:52:32;100003.13;;;15.00;90.33
73860;BME280;62197;51.632;13.700;2022-09-09T06:54:58;100001.16;;;15.05;91.92
73860;BME280;62197;51.632;13.700;2022-09-09T06:57:24;99992.25;;;15.13;91.49
73860;BME280;62197;51.632;13.700;2022-09-09T06:59:49;99991.66;;;15.26;91.09
73860;BME280;62197;51.632;13.700;2022-09-09T07:02:14;99985.50;;;15.34;90.38
73860;BME280;62197;51.632;13.700;2022-09-09T07:04:40;99992.16;;;15.38;91.23
73860;BME280;62197;51.632;13.700;2022-09-09T07:07:05;99986.31;;;15.45;90.40
73860;BME280;62197;51.632;13.700;2022-09-09T07:09:31;99990.72;;;15.51;89.90
73860;BME280;62197;51.632;13.700;2022-09-09T07:11:56;99994.06;;;15.53;90.08
73860;BME280;62197;51.632;13.700;2022-09-09T07:14:24;99988.50;;;15.53;88.63
73860;BME280;62197;51.632;13.700;2022-09-09T07:16:49;99993.50;;;15.56;89.51
73860;BME280;62197;51.632;13.700;2022-09-09T07:19:15;99982.63;;;15.60;88.47
73860;BME280;62197;51.632;13.700;2022-09-09T07:21:41;99995.41;;;15.66;88.98
73860;BME280;62197;51.632;13.700;2022-09-09T07:24:07;99993.72;;;15.70;89.05
73860;BME280;62197;51.632;13.700;2022-09-09T07:26:32;99992.28;;;15.77;89.26
73860;BME280;62197;51.632;13.700;2022-09-09T07:28:58;99999.41;;;15.93;88.02
73860;BME280;62197;51.632;13.700;2022-09-09T07:31:30;99997.09;;;16.05;87.56
73860;BME280;62197;51.632;13.700;2022-09-09T07:33:56;99999.75;;;16.20;86.33
73860;BME280;62197;51.632;13.700;2022-09-09T07:36:28;100005.69;;;16.48;85.89
73860;BME280;62197;51.632;13.700;2022-09-09T07:38:56;99996.66;;;16.61;84.57
73860;BME280;62197;51.632;13.700;2022-09-09T07:41:27;100005.31;;;16.64;84.28
73860;BME280;62197;51.632;13.700;2022-09-09T07:43:54;100004.69;;;16.67;82.75
73860;BME280;62197;51.632;13.700;2022-09-09T07:46:22;100002.84;;;16.86;80.56
73860;BME280;62197;51.632;13.700;2022-09-09T07:48:51;100002.50;;;16.93;82.67
73860;BME280;62197;51.632;13.700;2022-09-09T07:51:31;100004.66;;;17.01;81.07
73860;BME280;62197;51.632;13.700;2022-09-09T07:54:00;99997.63;;;17.03;81.14
73860;BME280;62197;51.632;13.700;2022-09-09T07:56:27;100005.66;;;17.10;80.81
73860;BME280;62197;51.632;13.700;2022-09-09T07:58:54;100015.53;;;17.26;80.25
73860;BME280;62197;51.632;13.700;2022-09-09T08:01:26;100004.13;;;17.70;78.52
73860;BME280;62197;51.632;13.700;2022-09-09T08:03:57;100010.50;;;18.13;78.24
73860;BME280;62197;51.632;13.700;2022-09-09T08:06:31;100019.19;;;18.48;78.09
73860;BME280;62197;51.632;13.700;2022-09-09T08:08:58;100013.03;;;18.28;74.74
73860;BME280;62197;51.632;13.700;2022-09-09T08:11:25;100016.00;;;18.36;75.04
73860;BME280;62197;51.632;13.700;2022-09-09T08:13:52;100017.13;;;18.54;74.12
73860;BME280;62197;51.632;13.700;2022-09-09T08:16:23;100015.16;;;18.54;73.70
73860;BME280;62197;51.632;13.700;2022-09-09T08:18:50;100009.88;;;18.53;75.65
73860;BME280;62197;51.632;13.700;2022-09-09T08:21:19;100013.66;;;18.62;73.61
73860;BME280;62197;51.632;13.700;2022-09-09T08:23:46;100013.09;;;18.92;75.86
73860;BME280;62197;51.632;13.700;2022-09-09T08:26:17;100010.72;;;18.99;72.25
73860;BME280;62197;51.632;13.700;2022-09-09T08:28:48;100012.88;;;19.34;73.14
73860;BME280;62197;51.632;13.700;2022-09-09T08:31:16;100003.34;;;19.35;71.85
73860;BME280;62197;51.632;13.700;2022-09-09T08:33:43;100011.75;;;19.62;71.08
73860;BME280;62197;51.632;13.700;2022-09-09T08:36:12;100004.66;;;19.78;68.85
73860;BME280;62197;51.632;13.700;2022-09-09T08:38:40;100003.84;;;19.92;70.86
73860;BME280;62197;51.632;13.700;2022-09-09T08:44:04;100000.00;;;19.88;69.39
73860;BME280;62197;51.632;13.700;2022-09-09T08:46:42;100006.63;;;19.92;68.57
73860;BME280;62197;51.632;13.700;2022-09-09T08:52:14;100016.03;;;19.96;67.45
73860;BME280;62197;51.632;13.700;2022-09-09T08:54:41;100013.13;;;20.01;69.50
73860;BME280;62197;51.632;13.700;2022-09-09T08:57:23;100009.44;;;19.92;67.64
73860;BME280;62197;51.632;13.700;2022-09-09T08:59:52;100017.34;;;19.76;68.50
73860;BME280;62197;51.632;13.700;2022-09-09T09:02:34;100019.63;;;19.60;65.44
73860;BME280;62197;51.632;13.700;2022-09-09T09:05:23;100010.69;;;19.86;64.58
73860;BME280;62197;51.632;13.700;2022-09-09T09:08:31;100012.41;;;20.44;64.65
73860;BME280;62197;51.632;13.700;2022-09-09T09:11:03;100011.72;;;20.61;64.15
73860;BME280;62197;51.632;13.700;2022-09-09T09:16:16;100008.66;;;20.49;63.72
73860;BME280;62197;51.632;13.700;2022-09-09T09:18:43;100006.47;;;20.68;65.43
73860;BME280;62197;51.632;13.700;2022-09-09T09:21:39;100005.66;;;20.98;62.05
73860;BME280;62197;51.632;13.700;2022-09-09T09:24:22;99997.31;;;21.29;62.27
73860;BME280;62197;51.632;13.700;2022-09-09T09:26:49;99999.53;;;20.88;62.09
73860;BME280;62197;51.632;13.700;2022-09-09T09:29:17;100006.47;;;20.68;62.84
73860;BME280;62197;51.632;13.700;2022-09-09T09:31:48;100003.56;;;20.51;64.67
73860;BME280;62197;51.632;13.700;2022-09-09T09:34:16;100013.47;;;20.35;64.19
73860;BME280;62197;51.632;13.700;2022-09-09T09:36:52;100017.69;;;20.10;65.31
73860;BME280;62197;51.632;13.700;2022-09-09T09:39:27;100011.91;;;19.93;66.40
73860;BME280;62197;51.632;13.700;2022-09-09T09:41:53;100022.28;;;19.93;66.91
73860;BME280;62197;51.632;13.700;2022-09-09T09:46:50;100026.34;;;19.59;67.71
73860;BME280;62197;51.632;13.700;2022-09-09T09:49:16;100029.59;;;19.53;68.90
73860;BME280;62197;51.632;13.700;2022-09-09T09:51:42;100018.78;;;19.33;67.93
73860;BME280;62197;51.632;13.700;2022-09-09T09:54:26;100011.47;;;19.18;69.13
73860;BME280;62197;51.632;13.700;2022-09-09T09:56:53;100022.25;;;19.11;69.04
73860;BME280;62197;51.632;13.700;2022-09-09T10:01:53;100018.50;;;19.02;70.34
73860;BME280;62197;51.632;13.700;2022-09-09T10:04:21;100021.84;;;19.04;70.19
73860;BME280;62197;51.632;13.700;2022-09-09T10:06:49;100024.72;;;18.99;71.26
73860;BME280;62197;51.632;13.700;2022-09-09T10:09:26;100025.97;;;19.07;70.54
73860;BME280;62197;51.632;13.700;2022-09-09T10:12:05;100028.19;;;19.23;71.52
73860;BME280;62197;51.632;13.700;2022-09-09T10:14:52;100031.03;;;19.37;71.17
73860;BME280;62197;51.632;13.700;2022-09-09T10:17:50;100019.13;;;19.45;70.82
73860;BME280;62197;51.632;13.700;2022-09-09T10:20:28;100029.66;;;19.89;70.05
73860;BME280;62197;51.632;13.700;2022-09-09T10:23:19;100027.44;;;20.26;68.76
73860;BME280;62197;51.632;13.700;2022-09-09T10:29:18;100015.91;;;20.50;67.30
73860;BME280;62197;51.632;13.700;2022-09-09T10:32:15;100015.16;;;20.36;68.42
73860;BME280;62197;51.632;13.700;2022-09-09T10:34:56;100025.09;;;20.42;68.02
73860;BME280;62197;51.632;13.700;2022-09-09T10:37:48;100025.34;;;20.32;66.81
73860;BME280;62197;51.632;13.700;2022-09-09T10:40:32;100026.97;;;20.33;67.08
73860;BME280;62197;51.632;13.700;2022-09-09T10:43:11;100003.94;;;20.58;66.50
73860;BME280;62197;51.632;13.700;2022-09-09T10:46:04;100016.75;;;21.25;65.70
73860;BME280;62197;51.632;13.700;2022-09-09T10:51:22;100010.28;;;22.89;57.91
73860;BME280;62197;51.632;13.700;2022-09-09T10:54:11;100021.63;;;23.73;56.04
73860;BME280;62197;51.632;13.700;2022-09-09T10:56:38;100016.00;;;23.26;55.25
73860;BME280;62197;51.632;13.700;2022-09-09T10:59:12;100021.53;;;22.80;56.76
73860;BME280;62197;51.632;13.700;2022-09-09T11:01:43;100012.28;;;22.20;58.47
73860;BME280;62197;51.632;13.700;2022-09-09T11:04:17;100013.34;;;23.21;58.09
73860;BME280;62197;51.632;13.700;2022-09-09T11:06:49;100003.38;;;23.33;54.97
73860;BME280;62197;51.632;13.700;2022-09-09T11:09:21;99997.47;;;23.63;54.08
73860;BME280;62197;51.632;13.700;2022-09-09T11:11:55;100001.19;;;24.13;52.03
73860;BME280;62197;51.632;13.700;2022-09-09T11:14:28;99999.25;;;23.97;53.20
73860;BME280;62197;51.632;13.700;2022-09-09T11:17:09;100000.56;;;23.41;54.65
73860;BME280;62197;51.632;13.700;2022-09-09T11:19:39;99988.63;;;23.27;53.88
73860;BME280;62197;51.632;13.700;2022-09-09T11:22:15;99990.84;;;24.79;51.22
73860;BME280;62197;51.632;13.700;2022-09-09T11:24:45;99985.72;;;25.50;49.39
73860;BME280;62197;51.632;13.700;2022-09-09T11:27:23;99976.44;;;25.74;48.63
73860;BME280;62197;51.632;13.700;2022-09-09T11:30:05;99979.06;;;26.70;47.82
73860;BME280;62197;51.632;13.700;2022-09-09T11:32:56;99979.13;;;26.86;45.94
73860;BME280;62197;51.632;13.700;2022-09-09T11:36:05;99985.25;;;25.60;47.19
73860;BME280;62197;51.632;13.700;2022-09-09T11:38:44;99979.91;;;26.71;44.33
73860;BME280;62197;51.632;13.700;2022-09-09T11:41:12;99976.91;;;26.67;45.31
73860;BME280;62197;51.632;13.700;2022-09-09T11:43:45;99968.28;;;27.04;43.05
73860;BME280;62197;51.632;13.700;2022-09-09T11:46:12;99965.03;;;26.74;44.41
73860;BME280;62197;51.632;13.700;2022-09-09T11:48:42;99955.81;;;26.93;43.67
73860;BME280;62197;51.632;13.700;2022-09-09T11:51:13;99963.00;;;27.80;43.23
73860;BME280;62197;51.632;13.700;2022-09-09T11:53:56;99960.09;;;27.61;43.70
73860;BME280;62197;51.632;13.700;2022-09-09T11:56:26;99956.91;;;27.62;41.63
73860;BME280;62197;51.632;13.700;2022-09-09T11:58:58;99942.88;;;26.92;42.52
73860;BME280;62197;51.632;13.700;2022-09-09T12:01:42;99936.75;;;27.05;42.95
73860;BME280;62197;51.632;13.700;2022-09-09T12:06:43;99962.94;;;26.59;44.91
73860;BME280;62197;51.632;13.700;2022-09-09T12:09:22;99956.63;;;25.74;45.88
73860;BME280;62197;51.632;13.700;2022-09-09T12:11:48;99953.25;;;24.67;48.35
73860;BME280;62197;51.632;13.700;2022-09-09T12:16:46;99954.72;;;24.52;48.62
73860;BME280;62197;51.632;13.700;2022-09-09T12:24:22;99945.97;;;24.98;47.93
73860;BME280;62197;51.632;13.700;2022-09-09T12:27:08;99947.59;;;24.34;51.30
73860;BME280;62197;51.632;13.700;2022-09-09T12:32:25;99957.31;;;23.46;53.61
73860;BME280;62197;51.632;13.700;2022-09-09T12:35:03;99949.94;;;25.54;47.89
73860;BME280;62197;51.632;13.700;2022-09-09T12:37:38;99951.06;;;24.72;48.99
73860;BME280;62197;51.632;13.700;2022-09-09T12:42:44;99952.88;;;22.73;56.21
73860;BME280;62197;51.632;13.700;2022-09-09T12:45:35;99958.00;;;22.71;56.30
73860;BME280;62197;51.632;13.700;2022-09-09T12:48:07;99957.06;;;22.58;56.20
73860;BME280;62197;51.632;13.700;2022-09-09T12:50:50;99943.00;;;22.41;58.46
73860;BME280;62197;51.632;13.700;2022-09-09T12:53:23;99950.59;;;22.15;56.39
73860;BME280;62197;51.632;13.700;2022-09-09T12:56:00;99951.41;;;21.90;57.86
73860;BME280;62197;51.632;13.700;2022-09-09T12:58:28;99944.75;;;21.77;57.55
73860;BME280;62197;51.632;13.700;2022-09-09T13:00:58;99954.31;;;21.76;58.62
73860;BME280;62197;51.632;13.700;2022-09-09T13:03:25;99941.44;;;21.75;59.82
73860;BME280;62197;51.632;13.700;2022-09-09T13:05:50;99940.78;;;21.70;59.68
73860;BME280;62197;51.632;13.700;2022-09-09T13:08:17;99946.53;;;21.65;60.42
73860;BME280;62197;51.632;13.700;2022-09-09T13:10:51;99948.50;;;21.55;63.15
73860;BME280;62197;51.632;13.700;2022-09-09T13:13:26;99946.97;;;21.32;66.14
73860;BME280;62197;51.632;13.700;2022-09-09T13:15:54;99943.25;;;21.15;68.65
73860;BME280;62197;51.632;13.700;2022-09-09T13:18:26;99950.81;;;21.06;65.91
73860;BME280;62197;51.632;13.700;2022-09-09T13:20:53;99953.56;;;23.83;59.42
73860;BME280;62197;51.632;13.700;2022-09-09T13:23:20;99940.47;;;26.66;53.59
73860;BME280;62197;51.632;13.700;2022-09-09T13:26:23;99949.66;;;24.78;57.37
73860;BME280;62197;51.632;13.700;2022-09-09T13:28:49;99948.13;;;23.57;62.00
73860;BME280;62197;51.632;13.700;2022-09-09T13:31:27;99939.50;;;22.61;65.03
73860;BME280;62197;51.632;13.700;2022-09-09T13:33:53;99949.22;;;22.55;65.74
73860;BME280;62197;51.632;13.700;2022-09-09T13:36:28;99932.03;;;23.20;65.31
73860;BME280;62197;51.632;13.700;2022-09-09T13:38:56;99921.50;;;26.39;54.32
73860;BME280;62197;51.632;13.700;2022-09-09T13:41:24;99928.69;;;28.01;51.84
73860;BME280;62197;51.632;13.700;2022-09-09T13:43:50;99916.22;;;29.23;46.20
73860;BME280;62197;51.632;13.700;2022-09-09T13:46:35;99916.97;;;29.92;43.15
73860;BME280;62197;51.632;13.700;2022-09-09T13:54:02;99905.88;;;30.13;41.65
73860;BME280;62197;51.632;13.700;2022-09-09T13:56:27;99900.63;;;30.78;42.18
73860;BME280;62197;51.632;13.700;2022-09-09T13:58:54;99899.47;;;30.49;41.25
73860;BME280;62197;51.632;13.700;2022-09-09T14:01:19;99891.91;;;30.97;40.55
73860;BME280;62197;51.632;13.700;2022-09-09T14:03:45;99894.66;;;30.23;39.55
73860;BME280;62197;51.632;13.700;2022-09-09T14:06:10;99884.75;;;30.14;38.59
73860;BME280;62197;51.632;13.700;2022-09-09T14:08:36;99896.28;;;30.24;39.35
73860;BME280;62197;51.632;13.700;2022-09-09T14:11:03;99895.69;;;30.38;38.45
73860;BME280;62197;51.632;13.700;2022-09-09T14:13:28;99894.22;;;30.51;38.88